Hiles, South Dakota
Current Conditions -  °F | °C
As of 12:55 PM on Thursday 18 Dec 2014 (Local Time) from KPHP Reporting Station
Scattered Clouds Scattered Clouds  
Wind Chill: 22°   Ceiling: Unl
Heat Index: 27°   Visibility: 10mi
Dew Point: 21°   Wind: 5mph
Humidity: 78%   Direction: NA
Pressure: 30.04"   Gusts: NA
Location:  43.5487°N, 101.811°W
Report Text: KPHP 181955Z AUTO VRB04KT 10SM SCT010 M03/M06 A3004 RMK AO2 SLP195 T10281061
Loading
Personal Weather Stations






























Interactive Weather Map New forecast layout! Learn more

10-Day Weather Forecast

Advertisements
Track Severe Weather on mobile